createdAt,value
2022-11-27T00:00:13.166Z,6.75
2022-11-27T00:03:00.801Z,6.15
2022-11-27T00:05:30.510Z,6.63
2022-11-27T00:07:57.813Z,6.35
2022-11-27T00:10:25.712Z,6.60
2022-11-27T00:12:53.042Z,8.02
2022-11-27T00:15:21.025Z,6.95
2022-11-27T00:17:48.480Z,6.90
2022-11-27T00:20:16.499Z,7.55
2022-11-27T00:22:45.832Z,7.53
2022-11-27T00:25:13.796Z,7.80
2022-11-27T00:27:41.126Z,6.78
2022-11-27T00:30:09.719Z,6.95
2022-11-27T00:32:37.210Z,7.38
2022-11-27T00:35:05.719Z,6.82
2022-11-27T00:37:33.402Z,8.68
2022-11-27T00:40:02.520Z,9.40
2022-11-27T00:42:29.921Z,7.60
2022-11-27T00:44:57.579Z,8.88
2022-11-27T00:47:25.044Z,8.00
2022-11-27T00:49:53.103Z,8.30
2022-11-27T00:52:20.318Z,7.40
2022-11-27T00:54:48.090Z,6.75
2022-11-27T00:57:16.933Z,7.53
2022-11-27T00:59:44.595Z,7.97
2022-11-27T01:02:12.061Z,7.43
2022-11-27T01:04:40.422Z,7.28
2022-11-27T01:07:07.748Z,8.52
2022-11-27T01:09:35.479Z,8.57
2022-11-27T01:12:02.839Z,8.05
2022-11-27T01:14:32.275Z,7.65
2022-11-27T01:16:59.737Z,7.95
2022-11-27T01:19:27.635Z,8.05
2022-11-27T01:21:54.934Z,7.55
2022-11-27T01:24:22.729Z,7.40
2022-11-27T01:26:50.035Z,7.78
2022-11-27T01:29:18.076Z,7.85
2022-11-27T01:31:47.054Z,7.35
2022-11-27T01:34:17.347Z,7.68
2022-11-27T01:36:44.943Z,7.15
2022-11-27T01:39:16.309Z,6.97
2022-11-27T01:41:44.867Z,6.78
2022-11-27T01:44:51.436Z,7.82
2022-11-27T01:47:29.186Z,6.65
2022-11-27T01:50:06.450Z,7.18
2022-11-27T01:52:37.148Z,7.90
2022-11-27T01:55:08.165Z,7.50
2022-11-27T01:57:44.606Z,7.03
2022-11-27T02:00:25.971Z,7.60
2022-11-27T02:02:54.820Z,7.80
2022-11-27T02:05:24.190Z,7.65
2022-11-27T02:07:52.386Z,8.07
2022-11-27T02:10:21.048Z,7.95
2022-11-27T02:12:56.602Z,8.20
2022-11-27T02:15:30.171Z,8.68
2022-11-27T02:18:06.437Z,7.35
2022-11-27T02:20:43.445Z,8.07
2022-11-27T02:23:41.744Z,7.15
2022-11-27T02:26:34.863Z,7.00
2022-11-27T02:29:05.942Z,6.38
2022-11-27T02:31:40.680Z,6.65
2022-11-27T02:34:18.011Z,6.45
2022-11-27T02:36:52.771Z,7.25
2022-11-27T02:39:25.783Z,7.55
2022-11-27T02:42:00.373Z,7.30
2022-11-27T02:44:34.033Z,8.18
2022-11-27T02:47:04.956Z,7.97
2022-11-27T02:49:35.768Z,7.90
2022-11-27T02:52:05.322Z,6.50
2022-11-27T02:54:34.150Z,6.43
2022-11-27T02:57:06.863Z,7.07
2022-11-27T02:59:37.084Z,6.88
2022-11-27T03:02:09.521Z,6.78
2022-11-27T03:04:43.230Z,7.25
2022-11-27T03:07:17.100Z,6.97
2022-11-27T03:09:48.485Z,7.25
2022-11-27T03:12:18.523Z,8.25
2022-11-27T03:14:48.488Z,8.15
2022-11-27T03:17:29.108Z,7.60
2022-11-27T03:20:01.358Z,7.72
2022-11-27T03:24:56.446Z,6.30
2022-11-27T03:27:30.670Z,6.80
2022-11-27T03:30:01.807Z,8.70
2022-11-27T03:32:32.358Z,7.88
2022-11-27T03:35:01.442Z,7.47
2022-11-27T03:37:29.617Z,7.65
2022-11-27T03:39:57.224Z,7.82
2022-11-27T03:42:30.435Z,8.07
2022-11-27T03:45:05.958Z,6.57
2022-11-27T03:47:48.403Z,7.40
2022-11-27T03:50:28.676Z,6.93
2022-11-27T03:53:05.738Z,6.25
2022-11-27T03:55:42.457Z,7.13
2022-11-27T03:58:15.880Z,7.82
2022-11-27T04:00:45.559Z,6.53
2022-11-27T04:03:13.807Z,6.93
2022-11-27T04:05:41.485Z,6.20
2022-11-27T04:08:09.155Z,6.70
2022-11-27T04:10:36.414Z,6.80
2022-11-27T04:13:04.117Z,6.32
2022-11-27T04:15:31.435Z,6.57
2022-11-27T04:18:00.542Z,7.22
2022-11-27T04:20:27.845Z,5.85
2022-11-27T04:22:55.553Z,6.32
2022-11-27T04:25:23.343Z,7.35
2022-11-27T04:27:51.355Z,7.05
2022-11-27T04:30:18.840Z,5.82
2022-11-27T04:32:46.790Z,7.35
2022-11-27T04:35:15.677Z,5.70
2022-11-27T04:37:43.880Z,5.75
2022-11-27T04:40:12.386Z,7.28
2022-11-27T04:42:40.142Z,7.88
2022-11-27T04:45:08.226Z,6.05
2022-11-27T04:47:35.994Z,7.45
2022-11-27T04:50:03.856Z,7.03
2022-11-27T04:52:33.067Z,7.45
2022-11-27T04:55:00.710Z,8.02
2022-11-27T04:57:28.505Z,8.90
2022-11-27T04:59:56.162Z,8.88
2022-11-27T05:02:23.826Z,7.65
2022-11-27T05:04:51.277Z,7.88
2022-11-27T05:07:18.999Z,7.65
2022-11-27T05:09:47.776Z,8.77
2022-11-27T05:12:15.580Z,8.95
2022-11-27T05:14:43.014Z,8.63
2022-11-27T05:17:11.183Z,8.73
2022-11-27T05:19:38.648Z,7.55
2022-11-27T05:22:07.429Z,8.00
2022-11-27T05:24:35.175Z,7.25
2022-11-27T05:27:04.374Z,7.25
2022-11-27T05:29:31.983Z,7.15
2022-11-27T05:31:59.621Z,7.75
2022-11-27T05:34:27.100Z,8.50
2022-11-27T05:36:54.912Z,7.43
2022-11-27T05:39:22.083Z,7.55
2022-11-27T05:41:50.271Z,8.18
2022-11-27T05:44:18.991Z,9.15
2022-11-27T05:46:46.738Z,9.13
2022-11-27T05:49:15.896Z,8.27
2022-11-27T05:51:50.490Z,7.72
2022-11-27T05:54:18.818Z,7.53
2022-11-27T05:56:46.754Z,8.45
2022-11-27T05:59:14.379Z,8.23
2022-11-27T06:01:47.035Z,8.00
2022-11-27T06:04:16.877Z,7.72
2022-11-27T06:06:44.859Z,8.98
2022-11-27T06:09:13.476Z,8.20
2022-11-27T06:11:41.927Z,8.90
2022-11-27T06:14:09.689Z,9.15
2022-11-27T06:16:38.226Z,8.65
2022-11-27T06:19:08.176Z,8.75
2022-11-27T06:21:36.030Z,8.60
2022-11-27T06:24:03.429Z,8.57
2022-11-27T06:26:33.317Z,9.45
2022-11-27T06:29:01.412Z,9.48
2022-11-27T06:31:31.894Z,10.23
2022-11-27T06:34:00.244Z,9.88
2022-11-27T06:36:31.692Z,9.38
2022-11-27T06:38:59.587Z,9.15
2022-11-27T06:41:27.983Z,8.98
2022-11-27T06:43:56.021Z,9.23
2022-11-27T06:46:24.417Z,9.43
2022-11-27T06:48:53.263Z,9.38
2022-11-27T06:51:23.705Z,9.85
2022-11-27T06:53:53.291Z,11.32
2022-11-27T06:56:23.491Z,11.85
2022-11-27T06:58:51.718Z,11.68
2022-11-27T07:01:19.768Z,10.75
2022-11-27T07:03:47.208Z,9.85
2022-11-27T07:06:18.170Z,9.65
2022-11-27T07:08:45.595Z,10.20
2022-11-27T07:11:16.489Z,12.27
2022-11-27T07:13:44.385Z,13.23
2022-11-27T07:16:13.531Z,12.68
2022-11-27T07:18:42.882Z,13.23
2022-11-27T07:21:10.845Z,12.27
2022-11-27T07:23:38.564Z,13.32
2022-11-27T07:26:07.289Z,11.50
2022-11-27T07:28:36.636Z,11.75
2022-11-27T07:31:04.066Z,13.13
2022-11-27T07:33:32.087Z,12.57
2022-11-27T07:36:00.647Z,12.88
2022-11-27T07:38:28.337Z,13.35
2022-11-27T07:40:55.696Z,14.73
2022-11-27T07:43:23.356Z,13.18
2022-11-27T07:45:52.339Z,12.68
2022-11-27T07:48:20.011Z,12.68
2022-11-27T07:50:47.350Z,14.10
2022-11-27T07:53:15.143Z,13.00
2022-11-27T07:55:42.832Z,14.57
2022-11-27T07:58:10.487Z,13.10
2022-11-27T08:00:38.916Z,14.93
2022-11-27T08:03:08.215Z,15.13
2022-11-27T08:05:37.763Z,12.50
2022-11-27T08:08:05.630Z,12.05
2022-11-27T08:10:35.613Z,11.43
2022-11-27T08:13:04.027Z,11.50
2022-11-27T08:15:31.526Z,11.80
2022-11-27T08:17:59.259Z,11.13
2022-11-27T08:20:28.009Z,11.38
2022-11-27T08:23:01.037Z,12.20
2022-11-27T08:25:29.938Z,11.40
2022-11-27T08:27:57.804Z,11.52
2022-11-27T08:30:25.499Z,10.48
2022-11-27T08:32:53.251Z,11.55
2022-11-27T08:35:20.651Z,12.57
2022-11-27T08:37:50.018Z,13.35
2022-11-27T08:40:17.351Z,12.05
2022-11-27T08:42:45.021Z,10.70
2022-11-27T08:45:12.567Z,11.48
2022-11-27T08:47:40.209Z,9.88
2022-11-27T08:50:08.677Z,12.57
2022-11-27T08:52:36.340Z,12.32
2022-11-27T08:55:05.944Z,13.13
2022-11-27T08:57:33.582Z,12.68
2022-11-27T09:00:01.001Z,12.70
2022-11-27T09:02:28.869Z,12.80
2022-11-27T09:04:56.165Z,14.20
2022-11-27T09:07:24.135Z,14.63
2022-11-27T09:09:51.531Z,13.63
2022-11-27T09:12:20.679Z,14.00
2022-11-27T09:14:48.056Z,14.32
2022-11-27T09:17:15.663Z,14.02
2022-11-27T09:19:42.894Z,13.75
2022-11-27T09:22:10.580Z,13.50
2022-11-27T09:24:38.081Z,13.48
2022-11-27T09:27:05.918Z,10.73
2022-11-27T09:29:35.806Z,10.48
2022-11-27T09:32:03.627Z,10.45
2022-11-27T09:34:34.665Z,11.60
2022-11-27T09:37:05.182Z,12.48
2022-11-27T09:39:32.477Z,13.30
2022-11-27T09:42:02.951Z,12.85
2022-11-27T09:44:37.893Z,13.15
2022-11-27T09:47:14.816Z,12.68
2022-11-27T09:49:46.943Z,12.13
2022-11-27T09:54:53.046Z,11.27
2022-11-27T09:57:29.112Z,12.48
2022-11-27T10:00:02.292Z,13.07
2022-11-27T10:02:32.480Z,11.70
2022-11-27T10:05:13.890Z,11.57
2022-11-27T10:08:00.719Z,11.20
2022-11-27T10:10:44.375Z,10.93
2022-11-27T10:13:28.732Z,9.65
2022-11-27T10:16:05.402Z,9.18
2022-11-27T10:18:39.889Z,9.10
2022-11-27T10:21:13.563Z,8.18
2022-11-27T10:23:49.291Z,8.95
2022-11-27T10:26:19.151Z,7.72
2022-11-27T10:28:57.782Z,8.35
2022-11-27T10:31:35.661Z,8.30
2022-11-27T10:34:06.985Z,8.38
2022-11-27T10:36:39.851Z,8.55
2022-11-27T10:39:16.402Z,7.88
2022-11-27T10:41:50.350Z,8.02
2022-11-27T10:44:28.355Z,7.65
2022-11-27T10:47:02.008Z,6.43
2022-11-27T10:49:31.375Z,6.78
2022-11-27T10:51:59.918Z,7.35
2022-11-27T10:54:31.788Z,7.15
2022-11-27T10:57:22.363Z,7.20
2022-11-27T11:00:01.649Z,7.07
2022-11-27T11:05:32.919Z,5.53
2022-11-27T11:08:01.413Z,7.40
2022-11-27T11:10:33.177Z,5.70
2022-11-27T11:13:15.346Z,5.40
2022-11-27T11:15:51.773Z,5.43
2022-11-27T11:18:23.630Z,6.85
2022-11-27T11:20:53.907Z,6.70
2022-11-27T11:23:26.065Z,7.38
2022-11-27T11:28:23.822Z,6.97
2022-11-27T11:30:59.418Z,6.82
2022-11-27T11:33:28.914Z,7.35
2022-11-27T11:36:06.937Z,7.97
2022-11-27T11:38:34.612Z,7.75
2022-11-27T11:41:05.866Z,7.85
2022-11-27T11:43:35.383Z,8.57
2022-11-27T11:46:18.703Z,8.93
2022-11-27T11:48:57.371Z,6.85
2022-11-27T11:51:37.489Z,8.13
2022-11-27T11:54:25.034Z,9.57
2022-11-27T11:56:53.944Z,10.00
2022-11-27T11:59:31.778Z,9.70
2022-11-27T12:02:20.835Z,10.07
2022-11-27T12:05:11.810Z,9.35
2022-11-27T12:08:03.486Z,9.88
2022-11-27T12:10:38.338Z,11.00
2022-11-27T12:13:18.789Z,10.52
2022-11-27T12:15:55.174Z,9.48
2022-11-27T12:18:31.729Z,9.57
2022-11-27T12:21:13.396Z,10.32
2022-11-27T12:23:58.067Z,10.23
2022-11-27T12:26:36.180Z,9.48
2022-11-27T12:29:26.149Z,9.32
2022-11-27T12:32:13.180Z,8.93
2022-11-27T12:34:58.993Z,8.40
2022-11-27T12:37:41.878Z,8.60
2022-11-27T12:40:41.004Z,7.60
2022-11-27T12:43:15.021Z,8.15
2022-11-27T12:45:47.781Z,7.60
2022-11-27T12:50:50.876Z,7.40
2022-11-27T12:53:26.633Z,7.13
2022-11-27T12:56:03.693Z,7.05
2022-11-27T12:58:37.464Z,7.13
2022-11-27T13:01:10.280Z,8.30
2022-11-27T13:03:45.958Z,8.30
2022-11-27T13:06:16.462Z,9.13
2022-11-27T13:08:54.948Z,9.38
2022-11-27T13:13:59.676Z,10.40
2022-11-27T13:16:34.182Z,9.75
2022-11-27T13:19:07.238Z,8.95
2022-11-27T13:21:36.302Z,9.32
2022-11-27T13:24:06.044Z,8.88
2022-11-27T13:26:36.870Z,8.40
2022-11-27T13:29:13.737Z,9.88
2022-11-27T13:31:44.631Z,8.85
2022-11-27T13:34:18.438Z,7.97
2022-11-27T13:36:54.581Z,9.10
2022-11-27T13:39:27.419Z,8.88
2022-11-27T13:42:05.959Z,9.20
2022-11-27T13:44:36.601Z,8.75
2022-11-27T13:47:12.071Z,8.63
2022-11-27T13:49:40.673Z,9.07
2022-11-27T13:52:12.513Z,8.95
2022-11-27T13:54:52.785Z,8.18
2022-11-27T13:57:20.767Z,8.18
2022-11-27T14:00:02.268Z,8.88
2022-11-27T14:02:44.667Z,9.05
2022-11-27T14:05:13.261Z,10.35
2022-11-27T14:07:43.634Z,8.40
2022-11-27T14:10:16.110Z,9.18
2022-11-27T14:12:54.943Z,8.13
2022-11-27T14:15:25.098Z,9.43
2022-11-27T14:18:04.421Z,8.40
2022-11-27T14:20:35.343Z,8.90
2022-11-27T14:23:18.541Z,8.07
2022-11-27T14:25:47.205Z,8.48
2022-11-27T14:28:18.935Z,7.60
2022-11-27T14:30:48.541Z,8.65
2022-11-27T14:33:18.622Z,8.52
2022-11-27T14:35:49.178Z,7.88
2022-11-27T14:38:17.044Z,9.23
2022-11-27T14:40:45.128Z,8.77
2022-11-27T14:43:18.536Z,9.57
2022-11-27T14:45:47.595Z,9.40
2022-11-27T14:48:22.920Z,8.68
2022-11-27T14:50:52.641Z,7.80
2022-11-27T14:53:23.832Z,7.57
2022-11-27T14:55:54.635Z,7.93
2022-11-27T14:58:27.142Z,8.48
2022-11-27T15:00:58.662Z,8.35
2022-11-27T15:03:27.205Z,7.35
2022-11-27T15:05:58.432Z,8.35
2022-11-27T15:08:27.635Z,8.40
2022-11-27T15:10:59.589Z,8.43
2022-11-27T15:13:31.481Z,8.88
2022-11-27T15:16:04.002Z,8.07
2022-11-27T15:18:35.373Z,8.57
2022-11-27T15:21:09.262Z,8.98
2022-11-27T15:23:37.425Z,9.20
2022-11-27T15:26:14.398Z,9.68
2022-11-27T15:28:53.604Z,10.32
2022-11-27T15:31:26.614Z,9.15
2022-11-27T15:33:59.804Z,8.48
2022-11-27T15:36:33.754Z,9.57
2022-11-27T15:39:21.522Z,9.75
2022-11-27T15:41:55.133Z,9.70
2022-11-27T15:44:25.642Z,11.43
2022-11-27T15:46:54.529Z,11.07
2022-11-27T15:49:22.840Z,12.25
2022-11-27T15:51:52.994Z,13.02
2022-11-27T15:54:20.924Z,13.50
2022-11-27T15:56:48.475Z,13.35
2022-11-27T15:59:16.836Z,14.55
2022-11-27T16:01:45.699Z,13.50
2022-11-27T16:04:13.843Z,13.98
2022-11-27T16:06:44.156Z,15.18
2022-11-27T16:09:17.205Z,14.07
2022-11-27T16:11:45.167Z,15.32
2022-11-27T16:14:14.035Z,16.15
2022-11-27T16:16:41.517Z,15.20
2022-11-27T16:19:11.393Z,16.42
2022-11-27T16:21:38.973Z,14.40
2022-11-27T16:24:08.668Z,14.38
2022-11-27T16:26:35.979Z,14.35
2022-11-27T16:29:04.076Z,11.52
2022-11-27T16:31:31.657Z,12.27
2022-11-27T16:33:59.451Z,12.35
2022-11-27T16:36:29.027Z,12.45
2022-11-27T16:38:56.863Z,13.07
2022-11-27T16:41:24.667Z,14.70
2022-11-27T16:43:54.964Z,14.52
2022-11-27T16:46:24.368Z,14.90
2022-11-27T16:48:53.293Z,15.00
2022-11-27T16:51:23.159Z,15.48
2022-11-27T16:53:54.905Z,14.60
2022-11-27T16:56:24.391Z,15.10
2022-11-27T16:58:54.085Z,15.90
2022-11-27T17:01:27.580Z,14.95
2022-11-27T17:03:56.137Z,16.30
2022-11-27T17:06:27.254Z,15.60
2022-11-27T17:08:57.320Z,15.10
2022-11-27T17:11:26.398Z,17.15
2022-11-27T17:13:57.470Z,15.63
2022-11-27T17:16:25.443Z,17.33
2022-11-27T17:18:53.899Z,15.75
2022-11-27T17:21:23.045Z,16.80
2022-11-27T17:23:51.282Z,15.60
2022-11-27T17:26:21.590Z,15.55
2022-11-27T17:28:50.420Z,17.00
2022-11-27T17:31:20.398Z,17.73
2022-11-27T17:33:48.331Z,18.48
2022-11-27T17:39:01.702Z,17.02
2022-11-27T17:41:33.543Z,16.48
2022-11-27T17:44:03.503Z,17.20
2022-11-27T17:46:31.286Z,17.15
2022-11-27T17:49:00.844Z,16.30
2022-11-27T17:51:30.610Z,15.98
2022-11-27T17:53:59.205Z,16.83
2022-11-27T17:56:27.224Z,17.05
2022-11-27T17:58:56.474Z,17.52
2022-11-27T18:01:25.831Z,16.77
2022-11-27T18:03:55.315Z,16.40
2022-11-27T18:06:22.602Z,19.23
2022-11-27T18:08:50.313Z,17.90
2022-11-27T18:11:20.181Z,17.20
2022-11-27T18:13:48.589Z,18.05
2022-11-27T18:16:20.354Z,16.95
2022-11-27T18:18:48.488Z,18.92
2022-11-27T18:21:18.826Z,17.27
2022-11-27T18:24:21.522Z,17.80
2022-11-27T18:29:24.394Z,19.05
2022-11-27T18:31:53.374Z,19.77
2022-11-27T18:34:21.381Z,17.83
2022-11-27T18:36:48.647Z,20.02
2022-11-27T18:39:16.603Z,20.13
2022-11-27T18:41:44.194Z,17.52
2022-11-27T18:44:12.029Z,21.23
2022-11-27T18:46:40.279Z,20.73
2022-11-27T18:49:09.808Z,20.88
2022-11-27T18:51:37.054Z,21.02
2022-11-27T18:54:05.278Z,17.88
2022-11-27T18:56:32.670Z,19.52
2022-11-27T18:59:01.591Z,21.83
2022-11-27T19:01:34.213Z,19.67
2022-11-27T19:04:05.707Z,19.90
2022-11-27T19:06:36.083Z,19.42
2022-11-27T19:09:05.022Z,18.13
2022-11-27T19:11:32.611Z,20.25
2022-11-27T19:14:01.463Z,17.92
2022-11-27T19:16:31.549Z,18.58
2022-11-27T19:19:00.512Z,18.50
2022-11-27T19:21:30.536Z,17.48
2022-11-27T19:24:01.437Z,19.55
2022-11-27T19:26:30.986Z,19.98
2022-11-27T19:29:00.745Z,20.13
2022-11-27T19:31:28.524Z,19.88
2022-11-27T19:33:58.367Z,20.27
2022-11-27T19:36:26.808Z,18.67
2022-11-27T19:38:55.952Z,20.20
2022-11-27T19:41:25.503Z,20.48
2022-11-27T19:43:53.980Z,20.88
2022-11-27T19:46:23.447Z,19.85
2022-11-27T19:48:55.652Z,19.20
2022-11-27T19:51:23.606Z,20.13
2022-11-27T19:53:53.416Z,19.17
2022-11-27T19:56:21.054Z,21.05
2022-11-27T19:58:50.170Z,20.25
2022-11-27T20:01:19.544Z,19.63
2022-11-27T20:03:49.840Z,19.48
2022-11-27T20:06:19.163Z,18.90
2022-11-27T20:08:48.858Z,17.77
2022-11-27T20:11:19.211Z,17.23
2022-11-27T20:13:47.704Z,19.33
2022-11-27T20:16:20.098Z,19.67
2022-11-27T20:21:18.701Z,17.83
2022-11-27T20:23:48.771Z,17.60
2022-11-27T20:26:17.846Z,18.75
2022-11-27T20:28:45.627Z,18.65
2022-11-27T20:31:15.622Z,17.85
2022-11-27T20:33:45.660Z,20.40
2022-11-27T20:36:14.883Z,22.55
2022-11-27T20:38:43.037Z,21.05
2022-11-27T20:41:13.258Z,22.33
2022-11-27T20:43:42.005Z,20.73
2022-11-27T20:46:12.002Z,21.92
2022-11-27T20:48:39.977Z,21.85
2022-11-27T20:51:10.878Z,22.50
2022-11-27T20:53:38.774Z,23.15
2022-11-27T20:56:08.676Z,19.23
2022-11-27T20:58:38.241Z,16.77
2022-11-27T21:01:13.879Z,17.65
2022-11-27T21:03:41.808Z,19.55
2022-11-27T21:06:11.015Z,18.48
2022-11-27T21:08:38.989Z,18.27
2022-11-27T21:11:11.700Z,19.25
2022-11-27T21:13:39.537Z,21.17
2022-11-27T21:16:08.281Z,20.73
2022-11-27T21:18:36.408Z,20.70
2022-11-27T21:21:08.084Z,21.85
2022-11-27T21:23:38.361Z,24.08
2022-11-27T21:26:06.600Z,20.70
2022-11-27T21:28:35.150Z,22.80
2022-11-27T21:31:07.183Z,28.10
2022-11-27T21:33:35.345Z,24.30
2022-11-27T21:36:03.370Z,27.42
2022-11-27T21:38:31.444Z,28.75
2022-11-27T21:41:00.259Z,29.35
2022-11-27T21:43:31.083Z,30.25
2022-11-27T21:45:58.583Z,32.83
2022-11-27T21:48:26.246Z,35.63
2022-11-27T21:51:00.493Z,33.67
2022-11-27T21:53:28.987Z,35.28
2022-11-27T21:55:56.479Z,33.58
2022-11-27T21:58:26.175Z,40.15
2022-11-27T22:00:53.453Z,34.85
2022-11-27T22:03:21.363Z,35.97
2022-11-27T22:05:56.931Z,38.17
2022-11-27T22:08:24.793Z,34.80
2022-11-27T22:10:52.294Z,38.17
2022-11-27T22:13:20.042Z,40.67
2022-11-27T22:15:48.663Z,37.05
2022-11-27T22:18:16.253Z,36.05
2022-11-27T22:20:43.759Z,38.90
2022-11-27T22:23:11.634Z,37.25
2022-11-27T22:25:38.994Z,35.10
2022-11-27T22:28:06.787Z,34.10
2022-11-27T22:30:34.134Z,37.78
2022-11-27T22:33:03.453Z,33.10
2022-11-27T22:35:30.685Z,46.08
2022-11-27T22:37:58.649Z,38.55
2022-11-27T22:40:25.985Z,38.45
2022-11-27T22:42:54.142Z,35.47
2022-11-27T22:45:21.505Z,39.55
2022-11-27T22:47:49.340Z,39.78
2022-11-27T22:50:18.380Z,42.10
2022-11-27T22:52:46.157Z,36.65
2022-11-27T22:55:13.435Z,37.00
2022-11-27T22:57:41.426Z,43.42
2022-11-27T23:00:10.054Z,40.70
2022-11-27T23:02:38.152Z,40.72
2022-11-27T23:05:06.008Z,41.92
2022-11-27T23:07:35.138Z,39.67
2022-11-27T23:10:02.540Z,45.53
2022-11-27T23:12:30.397Z,43.13
2022-11-27T23:14:57.656Z,35.88
2022-11-27T23:17:25.986Z,38.53
2022-11-27T23:19:53.298Z,41.63
2022-11-27T23:22:20.835Z,40.75
2022-11-27T23:24:49.468Z,38.55
2022-11-27T23:27:17.162Z,34.58
2022-11-27T23:29:44.539Z,42.47
2022-11-27T23:32:12.648Z,41.08
2022-11-27T23:34:40.251Z,37.80
2022-11-27T23:37:08.547Z,38.55
2022-11-27T23:39:35.973Z,38.90
2022-11-27T23:42:05.443Z,38.40
2022-11-27T23:44:32.688Z,40.05
2022-11-27T23:47:01.401Z,43.30
2022-11-27T23:49:28.646Z,38.40
2022-11-27T23:51:58.490Z,46.53
2022-11-27T23:54:25.849Z,37.03
2022-11-27T23:56:53.791Z,39.00
2022-11-27T23:59:22.541Z,42.22
